Time;durP1;ratioP1;P1;durP2;ratioP2;P2;SDS_P1;SDS_P2;PMS_P1;PMS_P2;Temp;Humidity;BMP_temperature;BMP_pressure;BME280_temperature;BME280_humidity;BME280_pressure;Samples;Min_cycle;Max_cycle;Signal;HPM_P1;HPM_P2
2020/12/17 00:01:04;;;;;;;2.65;1.45;;;10.50;94.10;;;;;;4975796;28;20073;-75
2020/12/17 00:03:30;;;;;;;4.13;1.75;;;10.50;94.10;;;;;;4975931;28;20034;-75
2020/12/17 00:05:55;;;;;;;3.83;1.45;;;10.50;94.10;;;;;;4958766;28;20031;-75
2020/12/17 00:08:21;;;;;;;3.60;1.60;;;10.50;94.10;;;;;;4958113;28;20486;-74
2020/12/17 00:10:47;;;;;;;2.78;1.00;;;10.50;94.10;;;;;;4975769;28;20109;-75
2020/12/17 00:13:13;;;;;;;5.57;1.85;;;10.50;94.10;;;;;;4958348;28;20459;-75
2020/12/17 00:15:38;;;;;;;6.30;1.80;;;10.50;94.10;;;;;;4958701;28;20015;-75
2020/12/17 00:18:04;;;;;;;3.38;1.50;;;10.50;94.20;;;;;;4975465;28;20506;-75
2020/12/17 00:20:30;;;;;;;5.32;1.50;;;10.50;94.20;;;;;;4976243;28;20027;-75
2020/12/17 00:22:55;;;;;;;3.97;1.80;;;10.50;94.20;;;;;;4976064;28;20034;-74
2020/12/17 00:25:21;;;;;;;3.08;1.45;;;10.50;94.10;;;;;;4957822;28;20481;-75
2020/12/17 00:27:47;;;;;;;4.15;1.67;;;10.50;94.20;;;;;;4975635;28;20074;-75
2020/12/17 00:30:14;;;;;;;3.17;1.60;;;10.50;94.20;;;;;;4974955;28;20049;-75
2020/12/17 00:32:41;;;;;;;4.65;1.40;;;10.50;94.20;;;;;;4975450;28;20163;-75
2020/12/17 00:35:08;;;;;;;2.50;1.38;;;10.50;94.20;;;;;;4974824;28;20526;-75
2020/12/17 00:37:35;;;;;;;4.03;1.70;;;10.50;94.20;;;;;;4975505;28;20026;-75
2020/12/17 00:40:06;;;;;;;6.43;1.80;;;10.50;94.20;;;;;;4975613;28;20085;-75
2020/12/17 00:42:32;;;;;;;3.80;1.73;;;10.50;94.20;;;;;;4975810;28;20063;-75
2020/12/17 00:44:57;;;;;;;2.65;1.42;;;10.50;94.20;;;;;;4958078;28;20352;-74
2020/12/17 00:47:31;;;;;;;3.72;1.45;;;10.50;94.20;;;;;;4957351;28;20027;-75
2020/12/17 00:49:57;;;;;;;4.50;1.58;;;10.50;94.20;;;;;;4975604;28;20057;-74
2020/12/17 00:52:23;;;;;;;2.92;1.65;;;10.50;94.20;;;;;;4974731;28;20019;-75
2020/12/17 00:54:50;;;;;;;3.70;1.30;;;10.50;94.20;;;;;;4975034;28;20042;-75
2020/12/17 00:57:16;;;;;;;4.22;1.63;;;10.50;94.20;;;;;;4993710;28;20026;-75
2020/12/17 00:59:42;;;;;;;7.35;1.58;;;10.50;94.20;;;;;;4994893;28;20026;-75
2020/12/17 01:02:08;;;;;;;3.65;1.40;;;10.50;94.10;;;;;;4993844;28;20359;-75
2020/12/17 01:04:33;;;;;;;4.55;1.25;;;10.50;94.10;;;;;;4995052;28;20390;-75
2020/12/17 01:06:59;;;;;;;3.28;1.55;;;10.60;94.20;;;;;;4994445;28;20037;-75
2020/12/17 01:09:24;;;;;;;3.65;1.95;;;10.60;94.20;;;;;;4976222;28;20232;-75
2020/12/17 01:11:50;;;;;;;3.42;1.30;;;10.50;94.20;;;;;;4994047;28;20025;-75
2020/12/17 01:14:16;;;;;;;2.95;1.40;;;10.50;94.20;;;;;;4994159;28;20026;-75
2020/12/17 01:16:49;;;;;;;3.47;1.50;;;10.50;94.50;;;;;;4994382;28;20026;-75
2020/12/17 01:19:15;;;;;;;2.88;1.60;;;10.50;94.20;;;;;;4976370;28;20088;-75
2020/12/17 01:21:41;;;;;;;6.47;2.33;;;10.50;94.20;;;;;;4994691;28;20451;-75
2020/12/17 01:24:06;;;;;;;3.03;1.73;;;10.50;94.20;;;;;;4992561;28;20022;-84
2020/12/17 01:26:32;;;;;;;3.90;1.60;;;10.50;94.20;;;;;;4992824;28;20023;-74
2020/12/17 01:28:58;;;;;;;4.72;1.85;;;10.50;94.20;;;;;;4976520;28;20042;-74
2020/12/17 01:31:23;;;;;;;4.95;1.40;;;10.50;94.20;;;;;;4993183;28;20031;-75
2020/12/17 01:33:49;;;;;;;3.22;1.45;;;10.50;94.20;;;;;;4994130;28;20027;-75
2020/12/17 01:36:15;;;;;;;2.92;1.30;;;10.50;94.20;;;;;;4993097;28;20030;-75
2020/12/17 01:38:41;;;;;;;4.30;1.95;;;10.50;94.20;;;;;;4992586;28;20062;-75
2020/12/17 01:41:10;;;;;;;5.15;1.85;;;10.60;94.20;;;;;;4976046;28;20102;-75
2020/12/17 01:43:44;;;;;;;2.10;1.20;;;10.60;94.20;;;;;;4993773;28;20474;-75
2020/12/17 01:46:12;;;;;;;2.70;1.40;;;10.60;94.20;;;;;;4993150;28;20023;-75
2020/12/17 01:48:39;;;;;;;2.75;1.80;;;10.60;94.20;;;;;;4993753;28;20072;-74
2020/12/17 01:51:06;;;;;;;3.67;1.20;;;10.60;94.20;;;;;;4976294;28;20031;-74
2020/12/17 01:53:42;;;;;;;4.85;1.42;;;10.60;94.20;;;;;;4993185;28;20027;-74
2020/12/17 01:56:27;;;;;;;3.58;1.75;;;10.60;94.20;;;;;;4993776;28;20050;-74
2020/12/17 01:59:11;;;;;;;3.83;1.23;;;10.60;94.10;;;;;;4993667;28;20026;-75
2020/12/17 02:01:43;;;;;;;6.53;1.52;;;10.60;94.20;;;;;;4993786;28;20029;-74
2020/12/17 02:04:10;;;;;;;5.25;1.67;;;10.70;94.20;;;;;;4993402;28;20018;-75
2020/12/17 02:06:36;;;;;;;3.95;1.45;;;10.70;94.20;;;;;;4993103;28;20109;-75
2020/12/17 02:09:03;;;;;;;2.58;1.33;;;10.60;94.10;;;;;;4976150;28;20058;-75
2020/12/17 02:11:28;;;;;;;3.65;1.42;;;10.70;94.10;;;;;;4993114;28;20026;-75
2020/12/17 02:13:54;;;;;;;3.78;1.42;;;10.60;94.10;;;;;;4993069;28;20049;-75
2020/12/17 02:16:20;;;;;;;4.40;1.58;;;10.60;94.10;;;;;;4975362;28;20455;-75
2020/12/17 02:18:45;;;;;;;6.53;1.95;;;10.60;94.10;;;;;;4975838;28;20080;-75
2020/12/17 02:21:13;;;;;;;4.18;1.60;;;10.70;94.20;;;;;;4991349;28;20018;-84
2020/12/17 02:23:39;;;;;;;2.25;1.30;;;10.60;94.20;;;;;;4993081;28;20030;-75
2020/12/17 02:26:06;;;;;;;2.25;1.45;;;10.60;94.20;;;;;;4992965;28;20025;-75
2020/12/17 02:28:34;;;;;;;4.75;1.40;;;10.60;94.20;;;;;;4992575;28;20391;-75
2020/12/17 02:30:59;;;;;;;5.47;1.40;;;10.60;94.20;;;;;;4992910;28;20478;-74
2020/12/17 02:33:25;;;;;;;6.18;1.60;;;10.60;94.20;;;;;;4992123;28;20084;-75
2020/12/17 02:35:51;;;;;;;3.70;1.50;;;10.60;94.20;;;;;;4993029;28;20019;-75
2020/12/17 02:38:17;;;;;;;2.60;1.70;;;10.60;94.20;;;;;;4992080;28;20371;-75
2020/12/17 02:40:42;;;;;;;5.72;1.88;;;10.60;94.20;;;;;;4991449;28;20018;-75
2020/12/17 02:43:13;;;;;;;2.67;1.20;;;10.60;94.20;;;;;;4993281;28;20038;-75
2020/12/17 02:45:48;;;;;;;3.35;1.10;;;10.60;94.20;;;;;;4993208;28;20146;-75
2020/12/17 02:48:15;;;;;;;3.00;1.20;;;10.70;94.20;;;;;;4992525;28;20030;-76
2020/12/17 02:50:41;;;;;;;3.17;1.17;;;10.60;94.10;;;;;;4992829;28;20030;-75
2020/12/17 02:53:08;;;;;;;1.80;0.85;;;10.60;94.10;;;;;;4992786;28;20019;-75
2020/12/17 02:55:34;;;;;;;4.28;1.42;;;10.60;94.10;;;;;;4991398;28;20050;-75
2020/12/17 02:58:00;;;;;;;2.35;1.45;;;10.60;94.10;;;;;;4992692;28;20038;-75
2020/12/17 03:00:26;;;;;;;2.10;1.23;;;10.60;94.10;;;;;;4992264;28;20026;-75
2020/12/17 03:02:52;;;;;;;3.80;1.30;;;10.60;94.10;;;;;;4975226;28;20047;-75
2020/12/17 03:05:17;;;;;;;2.03;1.10;;;10.60;94.20;;;;;;4992484;28;20541;-75
2020/12/17 03:07:43;;;;;;;3.78;1.20;;;10.60;94.20;;;;;;4992601;28;20136;-75
2020/12/17 03:10:12;;;;;;;2.00;1.13;;;10.60;94.20;;;;;;4992709;28;20027;-75
2020/12/17 03:12:40;;;;;;;2.60;1.05;;;10.70;94.20;;;;;;4992133;28;20116;-75
2020/12/17 03:15:06;;;;;;;1.98;1.27;;;10.60;94.20;;;;;;4974393;28;20230;-76
2020/12/17 03:17:32;;;;;;;2.72;1.20;;;10.60;94.20;;;;;;4974043;28;20114;-76
2020/12/17 03:19:57;;;;;;;3.35;1.10;;;10.60;94.20;;;;;;4991971;28;20486;-76
2020/12/17 03:22:23;;;;;;;2.13;1.05;;;10.70;94.20;;;;;;4990990;28;20374;-75
2020/12/17 03:24:49;;;;;;;3.13;1.20;;;10.60;94.10;;;;;;4991930;28;20028;-75
2020/12/17 03:27:15;;;;;;;2.08;1.23;;;10.70;94.20;;;;;;4991792;28;20471;-75
2020/12/17 03:29:41;;;;;;;2.42;1.08;;;10.70;94.10;;;;;;4991685;28;20486;-75
2020/12/17 03:32:06;;;;;;;3.05;1.02;;;10.70;94.10;;;;;;4974236;28;20034;-75
2020/12/17 03:34:32;;;;;;;2.22;1.10;;;10.70;94.10;;;;;;4977261;28;20030;-75
2020/12/17 03:36:58;;;;;;;2.85;1.30;;;10.70;94.10;;;;;;4977949;28;20053;-75
2020/12/17 03:39:23;;;;;;;3.05;1.05;;;10.70;94.10;;;;;;4977221;28;20466;-75
2020/12/17 03:41:49;;;;;;;4.35;1.48;;;10.70;94.10;;;;;;4995659;28;20027;-75
2020/12/17 03:44:15;;;;;;;3.10;1.33;;;10.70;94.10;;;;;;4995458;28;20026;-75
2020/12/17 03:46:41;;;;;;;2.83;1.60;;;10.70;94.10;;;;;;4995940;28;20026;-75
2020/12/17 03:49:06;;;;;;;4.38;1.38;;;10.70;94.10;;;;;;4978559;28;20034;-75
2020/12/17 03:51:32;;;;;;;3.92;1.65;;;10.70;94.10;;;;;;4977953;28;20022;-75
2020/12/17 03:53:57;;;;;;;2.55;1.00;;;10.70;94.10;;;;;;4995929;28;20022;-75
2020/12/17 03:56:23;;;;;;;3.50;1.25;;;10.70;94.10;;;;;;4977598;28;20078;-75
2020/12/17 03:58:49;;;;;;;2.75;1.05;;;10.70;94.10;;;;;;4995471;28;20034;-76
2020/12/17 04:01:14;;;;;;;3.83;1.67;;;10.70;94.10;;;;;;4977860;28;20084;-75
2020/12/17 04:03:40;;;;;;;4.00;1.60;;;10.70;94.10;;;;;;4995236;28;20110;-75
2020/12/17 04:06:05;;;;;;;1.92;1.10;;;10.70;94.10;;;;;;4978125;28;20041;-75
2020/12/17 04:08:31;;;;;;;2.22;1.10;;;10.70;94.10;;;;;;4995032;28;20109;-75
2020/12/17 04:10:57;;;;;;;2.75;1.13;;;10.70;94.10;;;;;;4995814;28;20030;-76
2020/12/17 04:13:22;;;;;;;2.90;1.40;;;10.60;94.10;;;;;;4977960;28;20485;-76
2020/12/17 04:15:48;;;;;;;5.40;1.83;;;10.60;94.10;;;;;;4995736;28;20471;-76
2020/12/17 04:18:13;;;;;;;3.15;1.20;;;10.60;94.10;;;;;;4995896;28;20038;-76
2020/12/17 04:20:39;;;;;;;2.67;1.27;;;10.60;94.20;;;;;;4977692;28;20159;-76
2020/12/17 04:23:04;;;;;;;5.15;2.08;;;10.60;94.20;;;;;;4995206;28;20541;-75
2020/12/17 04:25:30;;;;;;;6.38;1.88;;;10.60;94.20;;;;;;4995321;28;20030;-76
2020/12/17 04:27:56;;;;;;;4.07;1.73;;;10.60;94.30;;;;;;4995333;28;20041;-76
2020/12/17 04:30:21;;;;;;;4.18;1.95;;;10.50;94.30;;;;;;4995049;28;20034;-77
2020/12/17 04:32:47;;;;;;;4.30;2.13;;;10.50;94.30;;;;;;4995438;28;20031;-76
2020/12/17 04:35:13;;;;;;;4.55;1.85;;;10.50;94.30;;;;;;4990515;28;20027;-76
2020/12/17 04:37:38;;;;;;;5.03;1.95;;;10.50;94.30;;;;;;4957711;28;20035;-77
2020/12/17 04:40:04;;;;;;;4.85;2.33;;;10.50;94.40;;;;;;4975798;28;20102;-75
2020/12/17 04:42:32;;;;;;;4.47;2.10;;;10.50;94.40;;;;;;4975419;28;20033;-77
2020/12/17 04:45:00;;;;;;;4.90;1.85;;;10.50;94.40;;;;;;4957906;28;20038;-76
2020/12/17 04:47:30;;;;;;;3.33;1.98;;;10.50;94.40;;;;;;4975084;28;20031;-76
2020/12/17 04:50:07;;;;;;;4.38;2.20;;;10.50;94.40;;;;;;4971728;28;20455;-73
2020/12/17 04:52:37;;;;;;;7.55;2.42;;;10.50;94.40;;;;;;4972089;28;20019;-73
2020/12/17 04:55:05;;;;;;;3.00;1.55;;;10.50;94.50;;;;;;4972860;28;20046;-75
2020/12/17 04:57:32;;;;;;;4.13;1.98;;;10.50;94.50;;;;;;4972431;28;20034;-75
2020/12/17 04:59:58;;;;;;;6.07;2.20;;;10.50;94.50;;;;;;4973756;28;20034;-77
2020/12/17 05:02:24;;;;;;;5.07;2.35;;;10.50;94.60;;;;;;4974975;28;20054;-78
2020/12/17 05:04:53;;;;;;;4.05;1.90;;;10.50;94.60;;;;;;4975509;28;20023;-79
2020/12/17 05:07:22;;;;;;;4.47;1.95;;;10.40;94.60;;;;;;4975085;28;20034;-77
2020/12/17 05:09:50;;;;;;;3.53;1.48;;;10.40;94.60;;;;;;4974926;28;20050;-78
2020/12/17 05:12:16;;;;;;;4.32;2.13;;;10.50;94.60;;;;;;4957756;28;20019;-77
2020/12/17 05:14:42;;;;;;;4.53;2.30;;;10.50;94.60;;;;;;4974455;28;20502;-78
2020/12/17 05:17:08;;;;;;;5.88;1.90;;;10.40;94.60;;;;;;4975140;28;20063;-77
2020/12/17 05:19:34;;;;;;;5.53;2.05;;;10.40;94.60;;;;;;4974656;28;20034;-78
2020/12/17 05:22:01;;;;;;;5.35;2.15;;;10.40;94.70;;;;;;4974993;28;20027;-78
2020/12/17 05:24:28;;;;;;;3.45;1.83;;;10.40;94.70;;;;;;4974366;28;20165;-77
2020/12/17 05:26:58;;;;;;;8.25;2.60;;;10.50;94.70;;;;;;4974699;28;20387;-78
2020/12/17 05:29:25;;;;;;;4.70;2.20;;;10.40;94.70;;;;;;4975043;28;20030;-87
2020/12/17 05:31:51;;;;;;;5.57;2.75;;;10.40;94.70;;;;;;4974879;28;20067;-78
2020/12/17 05:34:17;;;;;;;5.07;1.98;;;10.40;94.80;;;;;;4974949;28;20034;-78
2020/12/17 05:36:45;;;;;;;4.30;1.92;;;10.40;94.80;;;;;;4974804;28;20100;-78
2020/12/17 05:39:20;;;;;;;6.35;1.95;;;10.40;94.80;;;;;;4957199;28;20371;-78
2020/12/17 05:41:48;;;;;;;5.22;2.47;;;10.40;94.80;;;;;;4974474;28;20030;-78
2020/12/17 05:44:25;;;;;;;4.95;2.05;;;10.40;94.80;;;;;;4974631;28;20078;-79
2020/12/17 05:46:51;;;;;;;5.82;2.63;;;10.50;94.80;;;;;;4974314;28;20101;-78
2020/12/17 05:49:18;;;;;;;11.88;3.33;;;10.50;94.80;;;;;;4974532;28;20130;-78
2020/12/17 05:51:44;;;;;;;9.35;3.72;;;10.40;94.90;;;;;;4956575;28;20471;-78
2020/12/17 05:54:20;;;;;;;6.65;2.47;;;10.40;94.90;;;;;;4957138;28;20415;-78
2020/12/17 05:56:46;;;;;;;7.20;2.55;;;10.40;95.00;;;;;;4973634;28;20541;-78
2020/12/17 05:59:12;;;;;;;4.72;2.58;;;10.40;95.00;;;;;;4974447;28;20463;-77
2020/12/17 06:01:41;;;;;;;9.02;3.55;;;10.40;95.00;;;;;;4974121;28;20027;-78
2020/12/17 06:04:15;;;;;;;6.45;2.67;;;10.40;95.10;;;;;;4974331;28;20090;-76
2020/12/17 06:06:47;;;;;;;8.38;2.63;;;10.40;95.10;;;;;;4973881;28;20026;-76
2020/12/17 06:09:20;;;;;;;8.88;3.58;;;10.40;95.10;;;;;;4956758;28;20064;-77
2020/12/17 06:11:47;;;;;;;7.07;3.05;;;10.40;95.10;;;;;;4956403;28;20050;-78
2020/12/17 06:14:14;;;;;;;9.15;3.28;;;10.30;95.10;;;;;;4956603;28;20026;-79
2020/12/17 06:16:43;;;;;;;8.75;2.55;;;10.40;95.20;;;;;;4956138;28;20530;-78
2020/12/17 06:19:14;;;;;;;7.65;3.78;;;10.40;95.20;;;;;;4956607;28;20027;-77
2020/12/17 06:21:41;;;;;;;12.18;3.33;;;10.40;95.20;;;;;;4973248;28;20232;-77
2020/12/17 06:24:07;;;;;;;9.38;3.38;;;10.40;95.50;;;;;;4974056;28;20059;-77
2020/12/17 06:26:39;;;;;;;8.05;3.70;;;10.40;95.20;;;;;;4973518;28;20129;-78
2020/12/17 06:29:17;;;;;;;14.32;3.97;;;10.40;95.20;;;;;;4973889;28;20031;-77
2020/12/17 06:31:53;;;;;;;8.70;3.65;;;10.40;95.20;;;;;;4956063;28;20054;-77
2020/12/17 06:34:19;;;;;;;9.55;4.35;;;10.40;95.20;;;;;;4956818;28;20023;-78
2020/12/17 06:36:48;;;;;;;11.50;3.72;;;10.30;95.20;;;;;;4974369;28;20059;-78
2020/12/17 06:39:14;;;;;;;11.43;5.18;;;10.40;95.20;;;;;;4973846;28;20034;-78
2020/12/17 06:41:40;;;;;;;11.57;3.85;;;10.40;95.30;;;;;;4975808;28;20051;-79
2020/12/17 06:44:26;;;;;;;10.32;4.18;;;10.30;95.20;;;;;;4972498;28;20113;-77
2020/12/17 06:46:59;;;;;;;7.82;3.45;;;10.40;95.20;;;;;;4973162;28;20035;-78
2020/12/17 06:49:30;;;;;;;10.63;3.65;;;10.40;95.20;;;;;;4973649;28;20041;-78
2020/12/17 06:52:06;;;;;;;11.27;4.77;;;10.40;95.20;;;;;;4973729;28;20034;-78
2020/12/17 06:54:31;;;;;;;11.77;4.47;;;10.40;95.20;;;;;;4955501;28;20027;-79
2020/12/17 06:57:10;;;;;;;11.52;4.55;;;10.30;95.20;;;;;;4973514;28;20379;-77
2020/12/17 06:59:37;;;;;;;11.88;4.20;;;10.30;95.20;;;;;;4973178;28;20387;-78
2020/12/17 07:02:04;;;;;;;11.23;4.85;;;10.30;95.20;;;;;;4973597;28;20030;-77
2020/12/17 07:04:49;;;;;;;13.70;5.07;;;10.30;95.20;;;;;;4973531;28;20027;-77
2020/12/17 07:07:24;;;;;;;10.60;4.05;;;10.30;95.20;;;;;;4958357;28;20031;-77
2020/12/17 07:09:54;;;;;;;11.95;4.78;;;10.30;95.30;;;;;;4977031;28;20468;-76
2020/12/17 07:12:34;;;;;;;10.70;4.40;;;10.20;95.30;;;;;;4977429;28;20027;-77
2020/12/17 07:15:01;;;;;;;12.87;4.80;;;10.20;95.20;;;;;;4977263;28;20027;-77
2020/12/17 07:17:27;;;;;;;14.93;5.28;;;10.20;95.30;;;;;;4959895;28;20338;-77
2020/12/17 07:19:53;;;;;;;18.67;5.60;;;10.20;95.30;;;;;;4976858;28;20040;-77
2020/12/17 07:22:19;;;;;;;15.82;5.32;;;10.20;95.30;;;;;;4975895;28;20477;-77
2020/12/17 07:24:53;;;;;;;12.50;4.35;;;10.20;95.30;;;;;;4976638;28;20019;-77
2020/12/17 07:27:23;;;;;;;11.02;4.15;;;10.20;95.40;;;;;;4977093;28;20023;-77
2020/12/17 07:29:51;;;;;;;8.77;4.18;;;10.20;95.40;;;;;;4959267;28;20467;-77
2020/12/17 07:32:31;;;;;;;15.20;4.30;;;10.20;95.40;;;;;;4976986;28;20034;-77
2020/12/17 07:35:06;;;;;;;10.07;4.63;;;10.30;95.30;;;;;;4976630;28;20026;-77
2020/12/17 07:37:39;;;;;;;14.10;5.05;;;10.30;95.30;;;;;;4976583;28;20031;-77
2020/12/17 07:40:31;;;;;;;13.07;6.10;;;10.30;95.30;;;;;;4976901;28;20031;-77
2020/12/17 07:42:59;;;;;;;16.33;4.88;;;10.20;95.20;;;;;;4948487;28;20073;-77
2020/12/17 07:45:42;;;;;;;15.10;4.47;;;10.20;95.30;;;;;;4976722;28;20027;-77
2020/12/17 07:48:36;;;;;;;11.35;3.60;;;10.20;95.30;;;;;;4976631;28;20071;-77
2020/12/17 07:51:06;;;;;;;14.77;4.40;;;10.30;95.30;;;;;;4976704;28;20034;-77
2020/12/17 07:53:33;;;;;;;11.80;4.20;;;10.30;95.30;;;;;;4976730;28;20078;-77
2020/12/17 07:55:59;;;;;;;16.13;4.50;;;10.30;95.30;;;;;;4974391;28;20399;-77
2020/12/17 07:58:25;;;;;;;8.75;3.75;;;10.30;95.30;;;;;;4976477;28;20031;-76
2020/12/17 08:00:57;;;;;;;9.10;3.00;;;10.30;95.30;;;;;;4976012;28;20365;-77
2020/12/17 08:03:23;;;;;;;10.23;3.88;;;10.30;95.20;;;;;;4976443;28;20079;-78
2020/12/17 08:05:50;;;;;;;9.80;3.97;;;10.30;95.20;;;;;;4975729;28;20027;-77
2020/12/17 08:08:18;;;;;;;8.32;3.65;;;10.40;95.20;;;;;;4976343;28;20030;-77
2020/12/17 08:10:45;;;;;;;10.20;4.22;;;10.40;95.20;;;;;;4958269;28;20129;-77
2020/12/17 08:13:11;;;;;;;10.55;4.03;;;10.40;95.10;;;;;;4976120;28;20027;-76
2020/12/17 08:15:36;;;;;;;13.20;4.82;;;10.40;95.10;;;;;;4957944;28;20554;-83
2020/12/17 08:18:04;;;;;;;12.80;3.78;;;10.40;95.10;;;;;;4973941;28;20119;-76
2020/12/17 08:20:30;;;;;;;9.68;4.07;;;10.40;95.20;;;;;;4976101;28;20055;-76
2020/12/17 08:22:56;;;;;;;9.95;3.28;;;10.40;95.20;;;;;;4975548;28;20084;-78
2020/12/17 08:25:24;;;;;;;6.72;2.58;;;10.40;95.10;;;;;;4976042;28;20506;-78
2020/12/17 08:27:53;;;;;;;7.68;2.45;;;10.50;95.10;;;;;;4975335;28;20023;-78
2020/12/17 08:30:20;;;;;;;7.50;2.30;;;10.50;95.10;;;;;;4976081;28;20062;-78
2020/12/17 08:32:50;;;;;;;7.32;2.55;;;10.50;95.00;;;;;;4975425;28;20371;-77
2020/12/17 08:35:24;;;;;;;9.15;3.25;;;10.50;95.00;;;;;;4975853;28;20113;-78
2020/12/17 08:37:52;;;;;;;9.27;3.78;;;10.60;95.00;;;;;;4974057;28;20034;-78
2020/12/17 08:40:24;;;;;;;12.80;3.83;;;10.50;95.30;;;;;;4975777;28;20026;-77
2020/12/17 08:42:53;;;;;;;10.55;3.53;;;10.50;95.00;;;;;;4957750;28;20165;-76
2020/12/17 08:45:20;;;;;;;9.13;3.40;;;10.50;95.00;;;;;;4975850;28;20026;-77
2020/12/17 08:47:49;;;;;;;9.77;3.85;;;10.50;94.90;;;;;;4974789;28;20041;-77
2020/12/17 08:50:16;;;;;;;11.32;4.45;;;10.50;94.90;;;;;;4958212;28;20158;-77
2020/12/17 08:52:43;;;;;;;9.68;4.13;;;10.50;94.90;;;;;;4957570;28;20122;-77
2020/12/17 08:55:10;;;;;;;8.02;3.15;;;10.50;94.90;;;;;;4975295;28;20042;-76
2020/12/17 08:57:37;;;;;;;9.07;3.58;;;10.50;94.90;;;;;;4975582;28;20459;-77
2020/12/17 09:00:12;;;;;;;13.18;4.65;;;10.50;94.90;;;;;;4957399;28;20065;-77
2020/12/17 09:02:40;;;;;;;14.02;3.80;;;10.50;94.90;;;;;;4974167;28;20023;-77
2020/12/17 09:05:09;;;;;;;12.18;4.35;;;10.60;94.90;;;;;;4975411;28;20027;-77
2020/12/17 09:07:36;;;;;;;13.25;4.05;;;10.50;94.80;;;;;;4975472;28;20073;-77
2020/12/17 09:10:13;;;;;;;11.65;3.75;;;10.50;94.90;;;;;;4975060;28;20041;-77
2020/12/17 09:12:38;;;;;;;12.82;4.93;;;10.50;94.90;;;;;;4975550;28;20023;-77
2020/12/17 09:15:12;;;;;;;9.38;3.20;;;10.50;94.90;;;;;;4974591;28;20553;-77
2020/12/17 09:17:38;;;;;;;8.88;3.47;;;10.50;94.90;;;;;;4974918;28;20434;-77
2020/12/17 09:20:21;;;;;;;9.93;3.42;;;10.50;94.90;;;;;;4957277;28;20382;-76
2020/12/17 09:22:48;;;;;;;7.32;3.08;;;10.50;94.90;;;;;;4974224;28;20372;-77
2020/12/17 09:25:15;;;;;;;11.75;3.47;;;10.60;94.90;;;;;;4975029;28;20029;-76
2020/12/17 09:27:45;;;;;;;8.63;2.60;;;10.60;94.90;;;;;;4975018;28;20031;-77
2020/12/17 09:30:19;;;;;;;5.47;2.83;;;10.60;94.80;;;;;;4974047;28;20035;-77
2020/12/17 09:32:52;;;;;;;8.32;2.65;;;10.70;94.80;;;;;;4974085;28;20030;-78
2020/12/17 09:35:18;;;;;;;6.68;2.90;;;10.70;94.70;;;;;;4974611;28;20035;-76
2020/12/17 09:38:14;;;;;;;8.07;2.97;;;10.70;94.70;;;;;;4974178;28;20158;-78
2020/12/17 09:40:41;;;;;;;7.80;2.97;;;10.70;94.60;;;;;;4972817;28;20498;-77
2020/12/17 09:43:10;;;;;;;9.68;4.28;;;10.70;94.60;;;;;;4956796;28;20027;-77
2020/12/17 09:45:40;;;;;;;8.52;2.65;;;10.70;94.60;;;;;;4957199;28;20435;-77
2020/12/17 09:48:24;;;;;;;8.07;3.75;;;10.70;94.60;;;;;;4974146;28;20030;-77
2020/12/17 09:51:02;;;;;;;5.55;3.40;;;10.70;94.50;;;;;;4957280;28;20031;-78
2020/12/17 09:53:36;;;;;;;6.82;2.92;;;10.70;94.60;;;;;;4963142;28;20458;-76
2020/12/17 09:56:02;;;;;;;9.75;3.63;;;10.70;94.70;;;;;;4981992;28;20070;-77
2020/12/17 09:58:28;;;;;;;6.53;3.42;;;10.60;94.70;;;;;;4959385;28;20467;-77
2020/12/17 10:00:53;;;;;;;8.18;3.47;;;10.70;94.70;;;;;;4984458;28;20034;-77
2020/12/17 10:03:19;;;;;;;7.22;3.10;;;10.70;94.70;;;;;;4977428;28;20031;-77
2020/12/17 10:05:45;;;;;;;9.65;3.42;;;10.70;94.60;;;;;;4973796;28;20535;-80
2020/12/17 10:08:10;;;;;;;6.20;3.17;;;10.70;94.60;;;;;;4974337;28;20035;-76
2020/12/17 10:10:37;;;;;;;8.70;3.58;;;10.70;94.60;;;;;;4973004;28;20031;-76
2020/12/17 10:13:03;;;;;;;8.48;3.50;;;10.60;94.50;;;;;;4973559;28;20027;-77
2020/12/17 10:15:29;;;;;;;7.00;3.25;;;10.60;94.80;;;;;;4974279;28;20023;-76
2020/12/17 10:17:56;;;;;;;10.68;3.78;;;10.70;94.60;;;;;;4973716;28;20029;-76
2020/12/17 10:20:22;;;;;;;9.07;2.78;;;10.70;94.50;;;;;;4973685;28;20046;-76
2020/12/17 10:22:48;;;;;;;5.68;2.80;;;10.80;94.50;;;;;;4973770;28;20027;-76
2020/12/17 10:25:15;;;;;;;9.25;3.55;;;10.80;94.40;;;;;;4973886;28;20164;-76
2020/12/17 10:27:41;;;;;;;8.70;4.47;;;10.80;94.40;;;;;;4973734;28;20026;-76
2020/12/17 10:30:07;;;;;;;7.63;3.63;;;10.70;94.30;;;;;;4973699;28;20039;-76
2020/12/17 10:32:33;;;;;;;6.22;2.78;;;10.70;94.40;;;;;;4973784;28;20074;-76
2020/12/17 10:34:59;;;;;;;4.65;2.08;;;10.80;94.50;;;;;;4973404;28;20105;-76
2020/12/17 10:37:26;;;;;;;6.68;2.63;;;10.80;94.40;;;;;;4956509;28;20065;-77
2020/12/17 10:39:52;;;;;;;11.77;3.95;;;10.80;94.30;;;;;;4955798;28;20026;-77
2020/12/17 10:42:17;;;;;;;7.85;3.45;;;10.80;94.10;;;;;;4972976;28;20034;-77
2020/12/17 10:44:43;;;;;;;7.78;4.07;;;10.80;94.10;;;;;;4972006;28;20023;-76
2020/12/17 10:47:09;;;;;;;10.73;2.80;;;10.80;94.10;;;;;;4972761;28;20037;-76
2020/12/17 10:49:34;;;;;;;5.53;2.30;;;10.80;94.20;;;;;;4972240;28;20026;-76
2020/12/17 10:52:00;;;;;;;7.10;2.58;;;10.80;94.10;;;;;;4973282;28;20023;-76
2020/12/17 10:54:26;;;;;;;7.18;2.45;;;10.80;94.10;;;;;;4955999;28;20121;-77
2020/12/17 10:56:52;;;;;;;8.40;3.30;;;10.90;94.10;;;;;;4973176;28;20102;-76
2020/12/17 10:59:17;;;;;;;8.13;3.72;;;10.90;93.90;;;;;;4973384;28;20105;-75
2020/12/17 11:01:43;;;;;;;8.10;3.30;;;10.90;93.90;;;;;;4972935;28;20023;-75
2020/12/17 11:04:09;;;;;;;8.05;3.50;;;10.90;93.90;;;;;;4972435;28;20509;-75
2020/12/17 11:06:35;;;;;;;7.38;3.10;;;10.90;93.80;;;;;;4955995;28;20023;-74
2020/12/17 11:09:01;;;;;;;9.10;2.72;;;10.90;93.80;;;;;;4971510;28;20117;-75
2020/12/17 11:11:26;;;;;;;5.80;2.50;;;11.00;93.80;;;;;;4973726;28;20066;-75
2020/12/17 11:13:53;;;;;;;7.78;2.92;;;11.00;93.80;;;;;;4971582;28;20058;-75
2020/12/17 11:16:20;;;;;;;5.63;2.10;;;11.00;93.70;;;;;;4973321;28;20027;-75
2020/12/17 11:18:46;;;;;;;7.50;3.38;;;11.20;93.80;;;;;;4973147;28;20037;-75
2020/12/17 11:21:18;;;;;;;9.65;3.20;;;11.20;93.50;;;;;;4972606;28;20015;-75
2020/12/17 11:23:44;;;;;;;7.03;3.10;;;11.30;93.50;;;;;;4955871;28;20050;-76
2020/12/17 11:26:09;;;;;;;8.20;2.92;;;11.30;93.60;;;;;;4955212;28;20038;-75
2020/12/17 11:28:35;;;;;;;8.88;3.13;;;11.30;93.50;;;;;;4973184;28;20109;-75
2020/12/17 11:31:01;;;;;;;7.25;3.22;;;11.30;93.50;;;;;;4972742;28;20456;-76
2020/12/17 11:33:27;;;;;;;4.03;2.47;;;11.30;93.40;;;;;;4973022;28;20034;-75
2020/12/17 11:35:53;;;;;;;5.75;2.08;;;11.40;93.40;;;;;;4955131;28;20023;-76
2020/12/17 11:38:20;;;;;;;8.88;3.53;;;11.50;93.40;;;;;;4973316;28;20030;-75
2020/12/17 11:40:46;;;;;;;7.30;2.90;;;11.60;93.20;;;;;;4955557;28;20027;-75
2020/12/17 11:43:12;;;;;;;5.22;2.88;;;11.60;93.10;;;;;;4971129;28;20440;-77
2020/12/17 11:45:37;;;;;;;6.80;3.05;;;11.60;93.20;;;;;;4973316;28;20452;-76
2020/12/17 11:48:03;;;;;;;8.65;2.63;;;11.60;93.20;;;;;;4972321;28;20143;-76
2020/12/17 11:50:29;;;;;;;5.93;2.92;;;11.50;93.30;;;;;;4955626;28;20474;-76
2020/12/17 11:52:55;;;;;;;6.63;2.75;;;11.50;93.10;;;;;;4955020;28;20033;-75
2020/12/17 11:55:21;;;;;;;6.40;2.55;;;11.40;93.20;;;;;;4976291;28;20042;-74
2020/12/17 11:57:48;;;;;;;6.40;2.63;;;11.40;93.30;;;;;;4976206;28;20106;-75
2020/12/17 12:00:15;;;;;;;8.10;2.75;;;11.40;93.30;;;;;;4976204;28;20031;-75
2020/12/17 12:02:41;;;;;;;7.50;3.67;;;11.40;93.30;;;;;;4960716;28;20602;-75
2020/12/17 12:05:08;;;;;;;6.10;3.08;;;11.30;93.20;;;;;;4979127;28;20046;-75
2020/12/17 12:07:34;;;;;;;4.78;2.50;;;11.30;93.10;;;;;;4960413;28;20090;-75
2020/12/17 12:10:06;;;;;;;6.63;3.00;;;11.30;93.20;;;;;;4981154;28;20119;-75
2020/12/17 12:12:32;;;;;;;6.90;3.38;;;11.30;93.20;;;;;;4959090;28;20442;-75
2020/12/17 12:14:57;;;;;;;6.63;3.05;;;11.40;93.20;;;;;;4974054;28;20046;-75
2020/12/17 12:17:23;;;;;;;5.10;2.40;;;11.40;93.10;;;;;;4976015;28;20054;-75
2020/12/17 12:19:49;;;;;;;6.10;2.63;;;11.30;93.10;;;;;;4976013;28;20031;-75
2020/12/17 12:22:14;;;;;;;6.75;2.45;;;11.40;93.10;;;;;;4975459;28;20038;-76
2020/12/17 12:24:40;;;;;;;8.52;2.92;;;11.40;93.00;;;;;;4975990;28;20438;-75
2020/12/17 12:27:06;;;;;;;5.25;2.78;;;11.50;93.00;;;;;;4975250;28;20027;-75
2020/12/17 12:29:32;;;;;;;5.97;2.63;;;11.50;93.00;;;;;;4958538;28;20463;-75
2020/12/17 12:31:58;;;;;;;5.53;2.80;;;11.50;92.90;;;;;;4975330;28;20034;-75
2020/12/17 12:34:25;;;;;;;6.25;2.63;;;11.50;92.80;;;;;;4975871;28;20073;-75
2020/12/17 12:36:53;;;;;;;9.27;3.33;;;11.50;92.60;;;;;;4960236;28;20022;-75
2020/12/17 12:39:19;;;;;;;6.28;3.13;;;11.40;92.80;;;;;;4975498;28;20073;-75
2020/12/17 12:41:50;;;;;;;5.72;1.95;;;11.40;92.70;;;;;;4975878;28;20096;-75
2020/12/17 12:44:16;;;;;;;9.27;2.88;;;11.50;92.80;;;;;;4974811;28;20034;-75
2020/12/17 12:46:42;;;;;;;6.78;2.45;;;11.40;92.80;;;;;;4958142;28;20034;-74
2020/12/17 12:49:09;;;;;;;4.47;2.13;;;11.50;92.80;;;;;;4975074;28;20038;-76